createdAt,value
2022-10-13T00:04:34.712Z,68.08
2022-10-13T00:09:38.709Z,68.12
2022-10-13T00:14:41.573Z,68.08
2022-10-13T00:19:44.268Z,67.87
2022-10-13T00:24:53.268Z,67.89
2022-10-13T00:29:56.798Z,67.82
2022-10-13T00:34:59.517Z,67.77
2022-10-13T00:40:04.266Z,67.96
2022-10-13T00:45:09.122Z,68.05
2022-10-13T00:50:17.704Z,67.68
2022-10-13T00:55:26.264Z,67.78
2022-10-13T01:00:30.099Z,67.89
2022-10-13T01:05:32.849Z,67.77
2022-10-13T01:10:48.327Z,67.72
2022-10-13T01:15:55.799Z,67.67
2022-10-13T01:21:12.852Z,67.85
2022-10-13T01:26:51.445Z,68.02
2022-10-13T01:32:52.380Z,67.77
2022-10-13T01:38:01.613Z,67.55
2022-10-13T01:43:08.800Z,67.68
2022-10-13T01:48:12.088Z,67.67
2022-10-13T01:53:19.334Z,67.91
2022-10-13T01:58:30.504Z,68.02
2022-10-13T02:03:39.872Z,67.81
2022-10-13T02:08:47.090Z,67.79
2022-10-13T02:13:54.111Z,67.98
2022-10-13T02:18:58.361Z,67.86
2022-10-13T02:24:02.931Z,67.97
2022-10-13T02:29:08.816Z,67.67
2022-10-13T02:34:11.761Z,67.62
2022-10-13T02:39:15.765Z,67.55
2022-10-13T02:44:18.423Z,67.57
2022-10-13T02:49:21.068Z,67.80
2022-10-13T02:54:25.076Z,67.76
2022-10-13T02:59:27.876Z,67.70
2022-10-13T03:04:30.490Z,67.81
2022-10-13T03:09:36.484Z,67.49
2022-10-13T03:14:40.197Z,67.63
2022-10-13T03:19:42.966Z,67.45
2022-10-13T03:24:49.567Z,67.80
2022-10-13T03:29:52.259Z,67.45
2022-10-13T03:34:54.841Z,68.54
2022-10-13T03:39:58.805Z,68.43
2022-10-13T03:45:01.438Z,68.26
2022-10-13T03:50:05.147Z,67.98
2022-10-13T03:55:09.465Z,67.98
2022-10-13T04:00:13.649Z,67.87
2022-10-13T04:05:16.646Z,68.07
2022-10-13T04:10:20.925Z,67.97
2022-10-13T04:15:25.317Z,69.85
2022-10-13T04:20:28.147Z,70.73
2022-10-13T04:25:32.486Z,72.59
2022-10-13T04:30:35.695Z,74.50
2022-10-13T04:35:41.210Z,75.52
2022-10-13T04:40:45.158Z,74.99
2022-10-13T04:45:47.764Z,75.08
2022-10-13T04:50:59.878Z,75.10
2022-10-13T04:56:05.395Z,75.02
2022-10-13T05:01:09.479Z,74.50
2022-10-13T05:06:15.984Z,73.90
2022-10-13T05:11:21.489Z,73.48
2022-10-13T05:16:25.043Z,73.15
2022-10-13T05:21:29.179Z,73.05
2022-10-13T05:26:33.615Z,72.67
2022-10-13T05:31:36.990Z,72.62
2022-10-13T05:36:39.727Z,72.16
2022-10-13T05:41:43.682Z,72.20
2022-10-13T05:46:49.734Z,72.07
2022-10-13T05:51:54.707Z,72.00
2022-10-13T05:57:03.847Z,71.84
2022-10-13T06:02:09.187Z,72.10
2022-10-13T06:07:12.552Z,71.89
2022-10-13T06:12:17.373Z,71.31
2022-10-13T06:17:20.312Z,71.09
2022-10-13T06:22:23.251Z,71.12
2022-10-13T06:27:27.300Z,70.76
2022-10-13T06:32:30.567Z,70.80
2022-10-13T06:37:33.178Z,70.61
2022-10-13T06:42:38.115Z,70.48
2022-10-13T06:47:44.826Z,70.40
2022-10-13T06:52:47.723Z,70.01
2022-10-13T06:57:51.695Z,69.97
2022-10-13T07:02:54.345Z,69.82
2022-10-13T07:07:56.993Z,69.66
2022-10-13T07:13:01.004Z,69.79
2022-10-13T07:18:03.789Z,69.74
2022-10-13T07:23:07.415Z,69.10
2022-10-13T07:28:11.429Z,68.70
2022-10-13T07:33:14.109Z,68.32
2022-10-13T07:38:16.714Z,68.10
2022-10-13T07:43:25.265Z,68.19
2022-10-13T07:48:28.416Z,67.81
2022-10-13T07:53:35.185Z,67.50
2022-10-13T07:58:40.310Z,67.51
2022-10-13T08:03:47.150Z,67.22
2022-10-13T08:08:54.265Z,67.41
2022-10-13T08:14:00.906Z,67.26
2022-10-13T08:19:03.539Z,67.31
2022-10-13T08:24:06.934Z,66.59
2022-10-13T08:29:26.981Z,66.07
2022-10-13T08:34:29.654Z,65.14
2022-10-13T08:39:32.660Z,65.69
2022-10-13T08:50:06.360Z,65.93
2022-10-13T08:55:22.552Z,66.16
2022-10-13T09:00:26.572Z,66.27
2022-10-13T09:05:42.431Z,65.75
2022-10-13T09:10:49.770Z,66.07
2022-10-13T09:15:56.427Z,66.08
2022-10-13T09:21:15.797Z,66.40
2022-10-13T09:26:23.203Z,66.07
2022-10-13T09:31:28.808Z,65.82
2022-10-13T09:36:31.780Z,65.21
2022-10-13T09:41:35.107Z,64.08
2022-10-13T09:46:41.308Z,64.10
2022-10-13T09:51:45.815Z,64.18
2022-10-13T09:56:57.585Z,63.94
2022-10-13T10:02:03.241Z,64.13
2022-10-13T10:07:11.772Z,63.81
2022-10-13T10:12:17.557Z,64.63
2022-10-13T10:17:29.798Z,64.73
2022-10-13T10:22:38.835Z,64.89
2022-10-13T10:27:44.684Z,65.01
2022-10-13T10:32:53.997Z,64.92
2022-10-13T10:38:12.143Z,65.12
2022-10-13T10:43:27.674Z,64.86
2022-10-13T10:48:34.722Z,65.42
2022-10-13T10:53:41.121Z,65.44
2022-10-13T10:58:50.968Z,65.28
2022-10-13T11:03:59.322Z,65.54
2022-10-13T11:09:01.956Z,65.59
2022-10-13T11:14:24.565Z,65.49
2022-10-13T11:19:32.878Z,65.36
2022-10-13T11:24:47.083Z,65.69
2022-10-13T11:29:55.580Z,65.93
2022-10-13T11:35:00.859Z,65.74
2022-10-13T11:40:17.179Z,65.80
2022-10-13T11:45:29.961Z,66.19
2022-10-13T11:50:38.836Z,66.27
2022-10-13T11:55:48.900Z,66.34
2022-10-13T12:00:53.630Z,66.11
2022-10-13T12:06:00.690Z,66.04
2022-10-13T12:11:04.609Z,66.39
2022-10-13T12:16:08.448Z,66.10
2022-10-13T12:21:16.189Z,66.04
2022-10-13T12:26:20.808Z,66.19
2022-10-13T12:31:24.882Z,66.21
2022-10-13T12:36:31.083Z,66.48
2022-10-13T12:41:36.075Z,66.30
2022-10-13T12:46:40.406Z,66.44
2022-10-13T12:51:45.152Z,66.29
2022-10-13T12:56:48.760Z,66.21
2022-10-13T13:01:55.709Z,66.17
2022-10-13T13:07:01.261Z,65.99
2022-10-13T13:12:20.380Z,66.00
2022-10-13T13:22:53.588Z,65.23
2022-10-13T13:27:56.201Z,65.42
2022-10-13T13:32:58.902Z,65.55
2022-10-13T13:38:02.984Z,65.31
2022-10-13T13:43:05.585Z,65.27
2022-10-13T13:48:08.429Z,65.64
2022-10-13T13:53:12.416Z,65.39
2022-10-13T13:58:15.193Z,65.47
2022-10-13T14:03:19.533Z,65.71
2022-10-13T14:08:23.716Z,65.70
2022-10-13T14:13:26.965Z,65.72
2022-10-13T14:18:30.577Z,66.37
2022-10-13T14:23:34.553Z,68.16
2022-10-13T14:28:37.231Z,71.72
2022-10-13T14:33:39.911Z,73.40
2022-10-13T14:38:43.843Z,73.43
2022-10-13T14:43:47.049Z,73.13
2022-10-13T14:48:49.936Z,72.58
2022-10-13T14:53:53.988Z,72.31
2022-10-13T14:58:58.425Z,72.33
2022-10-13T15:04:05.655Z,72.77
2022-10-13T15:09:12.217Z,73.52
2022-10-13T15:14:14.856Z,73.34
2022-10-13T15:19:17.439Z,73.10
2022-10-13T15:24:21.538Z,72.99
2022-10-13T15:29:28.124Z,73.05
2022-10-13T15:34:30.761Z,73.02
2022-10-13T15:39:34.767Z,73.04
2022-10-13T15:45:04.667Z,72.77
2022-10-13T15:50:00.082Z,73.02
2022-10-13T15:55:10.403Z,73.04
2022-10-13T16:00:14.500Z,73.04
2022-10-13T16:05:17.250Z,73.05
2022-10-13T16:10:21.231Z,73.01
2022-10-13T16:15:24.005Z,73.04
2022-10-13T16:20:26.811Z,73.11
2022-10-13T16:25:31.918Z,72.85
2022-10-13T16:30:37.019Z,72.97
2022-10-13T16:35:39.759Z,73.10
2022-10-13T16:40:44.027Z,73.12
2022-10-13T16:45:59.903Z,72.95
2022-10-13T16:51:06.282Z,72.84
2022-10-13T16:56:10.632Z,72.83
2022-10-13T17:01:13.604Z,72.52
2022-10-13T17:06:16.654Z,72.66
2022-10-13T17:11:22.560Z,72.39
2022-10-13T17:16:25.732Z,72.50
2022-10-13T17:21:28.477Z,72.86
2022-10-13T17:26:32.478Z,72.77
2022-10-13T17:31:35.240Z,73.01
2022-10-13T17:36:38.026Z,72.98
2022-10-13T17:41:48.154Z,72.79
2022-10-13T17:46:50.866Z,72.81
2022-10-13T17:51:54.885Z,72.70
2022-10-13T17:56:58.969Z,72.67
2022-10-13T18:02:01.648Z,72.89
2022-10-13T18:07:04.398Z,72.63
2022-10-13T18:12:09.846Z,72.34
2022-10-13T18:17:12.511Z,72.52
2022-10-13T18:22:15.196Z,72.87
2022-10-13T18:27:19.681Z,72.97
2022-10-13T18:32:23.059Z,72.88
2022-10-13T18:37:25.640Z,73.99
2022-10-13T18:42:29.686Z,76.88
2022-10-13T18:47:32.345Z,80.10
2022-10-13T18:52:34.980Z,80.81
2022-10-13T18:57:39.086Z,80.64
2022-10-13T19:02:41.651Z,79.86
2022-10-13T19:07:44.269Z,79.31
2022-10-13T19:12:48.220Z,79.06
2022-10-13T19:17:50.879Z,78.62
2022-10-13T19:22:54.124Z,78.17
2022-10-13T19:27:58.127Z,77.66
2022-10-13T19:33:01.191Z,77.50
2022-10-13T19:38:03.804Z,77.39
2022-10-13T19:43:08.002Z,76.75
2022-10-13T19:48:10.829Z,76.93
2022-10-13T19:53:14.008Z,76.59
2022-10-13T19:58:18.332Z,76.61
2022-10-13T20:03:21.093Z,76.50
2022-10-13T20:08:26.708Z,76.14
2022-10-13T20:13:30.742Z,76.23
2022-10-13T20:24:58.175Z,75.69
2022-10-13T20:30:02.178Z,75.59
2022-10-13T20:35:05.925Z,75.46
2022-10-13T20:40:09.393Z,75.58
2022-10-13T20:45:13.412Z,75.33
2022-10-13T20:50:16.150Z,75.42
2022-10-13T20:55:19.006Z,75.42
2022-10-13T21:00:22.952Z,75.45
2022-10-13T21:05:25.615Z,75.55
2022-10-13T21:10:28.256Z,75.57
2022-10-13T21:15:32.311Z,75.52
2022-10-13T21:20:35.551Z,75.64
2022-10-13T21:25:38.912Z,76.01
2022-10-13T21:30:42.873Z,76.14
2022-10-13T21:35:45.485Z,76.20
2022-10-13T21:40:52.974Z,76.33
2022-10-13T21:45:57.872Z,76.24
2022-10-13T21:51:00.469Z,76.40
2022-10-13T21:56:06.701Z,75.97
2022-10-13T22:01:10.915Z,76.19
2022-10-13T22:06:18.721Z,75.96
2022-10-13T22:11:22.687Z,76.15
2022-10-13T22:16:28.615Z,75.98
2022-10-13T22:21:33.521Z,75.93
2022-10-13T22:26:38.352Z,75.57
2022-10-13T22:31:42.312Z,75.86
2022-10-13T22:36:45.632Z,75.41
2022-10-13T22:41:48.302Z,75.68
2022-10-13T22:46:52.532Z,75.52
2022-10-13T22:51:55.276Z,75.41
2022-10-13T22:56:58.005Z,75.36
2022-10-13T23:02:01.948Z,75.30
2022-10-13T23:07:04.629Z,74.98
2022-10-13T23:12:07.420Z,75.13
2022-10-13T23:17:11.641Z,75.00
2022-10-13T23:22:14.326Z,74.94
2022-10-13T23:27:17.820Z,74.76
2022-10-13T23:32:21.791Z,74.62
2022-10-13T23:37:24.463Z,74.75
2022-10-13T23:42:27.125Z,74.66
2022-10-13T23:47:31.094Z,74.46
2022-10-13T23:52:33.894Z,74.61
2022-10-13T23:57:36.487Z,74.48
